Loudonville, Ohio
Current Conditions -  °F | °C
As of 3:52 PM on Thursday 23 Oct 2014 (Local Time) from KMFD Reporting Station
Clear Clear  
Wind Chill: 57°   Ceiling: Unl
Heat Index: 57°   Visibility: 10mi
Dew Point: 42°   Wind: 6mph
Humidity: 57%   Direction: NA
Pressure: 30.14"   Gusts: NA
Location:  40.64°N, 82.23°W
Report Text: KMFD 231952Z VRB05KT 10SM CLR 14/06 A3014 RMK AO2 SLP209 T01390056
Loading
Personal Weather Stations






























Interactive Weather Map
Tropical Storm Tracking
New forecast layout! Learn more

10-Day Weather Forecast

Advertisements
Track Severe Weather on mobile